sensor_id;sensor_type;location;lat;lon;timestamp;P1;durP1;ratioP1;P2;durP2;ratioP2
8819;SDS011;4446;50.876;4.736;2023-03-04T00:01:31;15.27;;;11.40;;
8819;SDS011;4446;50.876;4.736;2023-03-04T00:03:58;17.73;;;11.65;;
8819;SDS011;4446;50.876;4.736;2023-03-04T00:06:25;17.48;;;11.57;;
8819;SDS011;4446;50.876;4.736;2023-03-04T00:08:51;17.63;;;12.07;;
8819;SDS011;4446;50.876;4.736;2023-03-04T00:11:18;15.27;;;11.38;;
8819;SDS011;4446;50.876;4.736;2023-03-04T00:13:47;16.02;;;11.93;;
8819;SDS011;4446;50.876;4.736;2023-03-04T00:16:13;19.25;;;11.02;;
8819;SDS011;4446;50.876;4.736;2023-03-04T00:18:40;20.10;;;11.23;;
8819;SDS011;4446;50.876;4.736;2023-03-04T00:21:07;16.02;;;10.57;;
8819;SDS011;4446;50.876;4.736;2023-03-04T00:23:34;16.52;;;10.95;;
8819;SDS011;4446;50.876;4.736;2023-03-04T00:26:01;18.30;;;9.95;;
8819;SDS011;4446;50.876;4.736;2023-03-04T00:28:28;18.02;;;10.00;;
8819;SDS011;4446;50.876;4.736;2023-03-04T00:30:56;18.23;;;10.20;;
8819;SDS011;4446;50.876;4.736;2023-03-04T00:33:23;19.98;;;10.07;;
8819;SDS011;4446;50.876;4.736;2023-03-04T00:35:50;18.35;;;9.32;;
8819;SDS011;4446;50.876;4.736;2023-03-04T00:38:17;19.23;;;9.25;;
8819;SDS011;4446;50.876;4.736;2023-03-04T00:40:44;14.82;;;8.20;;
8819;SDS011;4446;50.876;4.736;2023-03-04T00:43:11;17.70;;;9.13;;
8819;SDS011;4446;50.876;4.736;2023-03-04T00:45:38;16.45;;;8.98;;
8819;SDS011;4446;50.876;4.736;2023-03-04T00:48:06;19.88;;;8.90;;
8819;SDS011;4446;50.876;4.736;2023-03-04T00:50:33;18.88;;;9.20;;
8819;SDS011;4446;50.876;4.736;2023-03-04T00:53:00;15.15;;;8.50;;
8819;SDS011;4446;50.876;4.736;2023-03-04T00:55:27;17.23;;;9.35;;
8819;SDS011;4446;50.876;4.736;2023-03-04T00:57:53;17.40;;;9.23;;
8819;SDS011;4446;50.876;4.736;2023-03-04T01:00:20;18.15;;;9.48;;
8819;SDS011;4446;50.876;4.736;2023-03-04T01:02:48;21.02;;;8.88;;
8819;SDS011;4446;50.876;4.736;2023-03-04T01:05:16;17.33;;;9.00;;
8819;SDS011;4446;50.876;4.736;2023-03-04T01:07:43;17.02;;;9.25;;
8819;SDS011;4446;50.876;4.736;2023-03-04T01:10:11;17.95;;;9.10;;
8819;SDS011;4446;50.876;4.736;2023-03-04T01:12:39;22.60;;;9.00;;
8819;SDS011;4446;50.876;4.736;2023-03-04T01:15:06;15.05;;;7.85;;
8819;SDS011;4446;50.876;4.736;2023-03-04T01:17:34;18.27;;;7.82;;
8819;SDS011;4446;50.876;4.736;2023-03-04T01:20:01;17.42;;;8.45;;
8819;SDS011;4446;50.876;4.736;2023-03-04T01:22:31;17.52;;;7.50;;
8819;SDS011;4446;50.876;4.736;2023-03-04T01:24:58;16.63;;;8.30;;
8819;SDS011;4446;50.876;4.736;2023-03-04T01:27:24;19.08;;;7.93;;
8819;SDS011;4446;50.876;4.736;2023-03-04T01:29:51;17.08;;;7.65;;
8819;SDS011;4446;50.876;4.736;2023-03-04T01:32:18;18.70;;;6.80;;
8819;SDS011;4446;50.876;4.736;2023-03-04T01:34:45;16.40;;;6.90;;
8819;SDS011;4446;50.876;4.736;2023-03-04T01:37:12;14.38;;;6.95;;
8819;SDS011;4446;50.876;4.736;2023-03-04T01:39:40;13.20;;;6.10;;
8819;SDS011;4446;50.876;4.736;2023-03-04T01:42:10;13.75;;;5.40;;
8819;SDS011;4446;50.876;4.736;2023-03-04T01:44:42;17.60;;;6.43;;
8819;SDS011;4446;50.876;4.736;2023-03-04T01:47:09;18.45;;;6.88;;
8819;SDS011;4446;50.876;4.736;2023-03-04T01:49:36;14.88;;;7.03;;
8819;SDS011;4446;50.876;4.736;2023-03-04T01:52:04;15.15;;;6.82;;
8819;SDS011;4446;50.876;4.736;2023-03-04T01:54:31;13.45;;;6.40;;
8819;SDS011;4446;50.876;4.736;2023-03-04T01:56:59;11.77;;;6.55;;
8819;SDS011;4446;50.876;4.736;2023-03-04T01:59:28;11.18;;;6.53;;
8819;SDS011;4446;50.876;4.736;2023-03-04T02:01:57;13.60;;;6.15;;
8819;SDS011;4446;50.876;4.736;2023-03-04T02:04:26;11.57;;;6.65;;
8819;SDS011;4446;50.876;4.736;2023-03-04T02:06:55;15.45;;;6.57;;
8819;SDS011;4446;50.876;4.736;2023-03-04T02:09:23;12.68;;;6.03;;
8819;SDS011;4446;50.876;4.736;2023-03-04T02:11:50;14.23;;;6.80;;
8819;SDS011;4446;50.876;4.736;2023-03-04T02:14:19;13.85;;;7.00;;
8819;SDS011;4446;50.876;4.736;2023-03-04T02:16:47;15.10;;;7.28;;
8819;SDS011;4446;50.876;4.736;2023-03-04T02:19:15;13.15;;;6.82;;
8819;SDS011;4446;50.876;4.736;2023-03-04T02:21:49;15.07;;;7.25;;
8819;SDS011;4446;50.876;4.736;2023-03-04T02:24:17;14.48;;;6.78;;
8819;SDS011;4446;50.876;4.736;2023-03-04T02:26:52;9.75;;;6.20;;
8819;SDS011;4446;50.876;4.736;2023-03-04T02:29:19;12.68;;;6.93;;
8819;SDS011;4446;50.876;4.736;2023-03-04T02:31:46;17.95;;;6.55;;
8819;SDS011;4446;50.876;4.736;2023-03-04T02:34:15;14.90;;;7.07;;
8819;SDS011;4446;50.876;4.736;2023-03-04T02:36:44;15.27;;;6.57;;
8819;SDS011;4446;50.876;4.736;2023-03-04T02:39:19;12.35;;;6.15;;
8819;SDS011;4446;50.876;4.736;2023-03-04T02:41:49;12.73;;;5.97;;
8819;SDS011;4446;50.876;4.736;2023-03-04T02:44:19;12.63;;;6.85;;
8819;SDS011;4446;50.876;4.736;2023-03-04T02:46:49;11.68;;;5.85;;
8819;SDS011;4446;50.876;4.736;2023-03-04T02:49:17;13.80;;;5.50;;
8819;SDS011;4446;50.876;4.736;2023-03-04T02:51:45;14.23;;;5.80;;
8819;SDS011;4446;50.876;4.736;2023-03-04T02:54:14;15.02;;;5.97;;
8819;SDS011;4446;50.876;4.736;2023-03-04T02:56:43;12.45;;;5.68;;
8819;SDS011;4446;50.876;4.736;2023-03-04T02:59:12;13.73;;;5.43;;
8819;SDS011;4446;50.876;4.736;2023-03-04T03:01:40;17.70;;;5.55;;
8819;SDS011;4446;50.876;4.736;2023-03-04T03:04:07;9.30;;;5.03;;
8819;SDS011;4446;50.876;4.736;2023-03-04T03:06:34;13.25;;;5.10;;
8819;SDS011;4446;50.876;4.736;2023-03-04T03:09:01;15.77;;;5.00;;
8819;SDS011;4446;50.876;4.736;2023-03-04T03:11:28;12.07;;;5.20;;
8819;SDS011;4446;50.876;4.736;2023-03-04T03:13:55;14.88;;;5.82;;
8819;SDS011;4446;50.876;4.736;2023-03-04T03:16:24;15.80;;;6.03;;
8819;SDS011;4446;50.876;4.736;2023-03-04T03:18:51;10.68;;;5.78;;
8819;SDS011;4446;50.876;4.736;2023-03-04T03:21:18;12.63;;;5.43;;
8819;SDS011;4446;50.876;4.736;2023-03-04T03:23:45;12.73;;;5.38;;
8819;SDS011;4446;50.876;4.736;2023-03-04T03:26:11;14.02;;;5.18;;
8819;SDS011;4446;50.876;4.736;2023-03-04T03:28:38;12.07;;;5.38;;
8819;SDS011;4446;50.876;4.736;2023-03-04T03:31:05;15.45;;;5.93;;
8819;SDS011;4446;50.876;4.736;2023-03-04T03:33:34;11.45;;;5.07;;
8819;SDS011;4446;50.876;4.736;2023-03-04T03:36:01;8.38;;;5.85;;
8819;SDS011;4446;50.876;4.736;2023-03-04T03:38:28;15.07;;;5.10;;
8819;SDS011;4446;50.876;4.736;2023-03-04T03:40:55;12.57;;;5.18;;
8819;SDS011;4446;50.876;4.736;2023-03-04T03:43:22;15.15;;;5.68;;
8819;SDS011;4446;50.876;4.736;2023-03-04T03:45:49;13.65;;;5.45;;
8819;SDS011;4446;50.876;4.736;2023-03-04T03:48:16;14.13;;;5.45;;
8819;SDS011;4446;50.876;4.736;2023-03-04T03:50:45;14.77;;;5.68;;
8819;SDS011;4446;50.876;4.736;2023-03-04T03:53:12;14.43;;;5.72;;
8819;SDS011;4446;50.876;4.736;2023-03-04T03:55:38;12.73;;;5.68;;
8819;SDS011;4446;50.876;4.736;2023-03-04T03:58:05;17.80;;;6.03;;
8819;SDS011;4446;50.876;4.736;2023-03-04T04:00:32;12.73;;;5.22;;
8819;SDS011;4446;50.876;4.736;2023-03-04T04:02:59;15.60;;;5.47;;
8819;SDS011;4446;50.876;4.736;2023-03-04T04:05:26;15.90;;;5.70;;
8819;SDS011;4446;50.876;4.736;2023-03-04T04:07:55;16.60;;;5.80;;
8819;SDS011;4446;50.876;4.736;2023-03-04T04:10:22;14.50;;;5.72;;
8819;SDS011;4446;50.876;4.736;2023-03-04T04:12:49;17.23;;;6.03;;
8819;SDS011;4446;50.876;4.736;2023-03-04T04:15:15;14.82;;;5.93;;
8819;SDS011;4446;50.876;4.736;2023-03-04T04:17:42;14.32;;;5.53;;
8819;SDS011;4446;50.876;4.736;2023-03-04T04:20:10;11.35;;;6.15;;
8819;SDS011;4446;50.876;4.736;2023-03-04T04:22:37;12.80;;;5.60;;
8819;SDS011;4446;50.876;4.736;2023-03-04T04:25:06;11.93;;;5.05;;
8819;SDS011;4446;50.876;4.736;2023-03-04T04:27:34;8.98;;;5.30;;
8819;SDS011;4446;50.876;4.736;2023-03-04T04:30:02;12.10;;;5.25;;
8819;SDS011;4446;50.876;4.736;2023-03-04T04:32:29;12.13;;;5.30;;
8819;SDS011;4446;50.876;4.736;2023-03-04T04:34:56;11.43;;;5.80;;
8819;SDS011;4446;50.876;4.736;2023-03-04T04:37:23;13.73;;;5.53;;
8819;SDS011;4446;50.876;4.736;2023-03-04T04:39:49;18.67;;;6.03;;
8819;SDS011;4446;50.876;4.736;2023-03-04T04:42:20;13.07;;;5.30;;
8819;SDS011;4446;50.876;4.736;2023-03-04T04:44:47;8.90;;;5.25;;
8819;SDS011;4446;50.876;4.736;2023-03-04T04:47:14;12.50;;;5.13;;
8819;SDS011;4446;50.876;4.736;2023-03-04T04:49:41;18.50;;;5.63;;
8819;SDS011;4446;50.876;4.736;2023-03-04T04:52:08;11.35;;;4.90;;
8819;SDS011;4446;50.876;4.736;2023-03-04T04:54:35;14.38;;;5.65;;
8819;SDS011;4446;50.876;4.736;2023-03-04T04:57:02;11.32;;;5.18;;
8819;SDS011;4446;50.876;4.736;2023-03-04T04:59:30;13.35;;;5.07;;
8819;SDS011;4446;50.876;4.736;2023-03-04T05:01:57;14.02;;;5.63;;
8819;SDS011;4446;50.876;4.736;2023-03-04T05:04:24;11.38;;;5.45;;
8819;SDS011;4446;50.876;4.736;2023-03-04T05:06:51;13.85;;;5.40;;
8819;SDS011;4446;50.876;4.736;2023-03-04T05:09:18;13.30;;;5.20;;
8819;SDS011;4446;50.876;4.736;2023-03-04T05:11:47;13.52;;;5.50;;
8819;SDS011;4446;50.876;4.736;2023-03-04T05:14:13;14.93;;;4.68;;
8819;SDS011;4446;50.876;4.736;2023-03-04T05:16:42;13.57;;;5.25;;
8819;SDS011;4446;50.876;4.736;2023-03-04T05:19:08;12.48;;;4.90;;
8819;SDS011;4446;50.876;4.736;2023-03-04T05:21:35;12.52;;;5.30;;
8819;SDS011;4446;50.876;4.736;2023-03-04T05:24:02;10.85;;;5.22;;
8819;SDS011;4446;50.876;4.736;2023-03-04T05:26:29;12.85;;;4.68;;
8819;SDS011;4446;50.876;4.736;2023-03-04T05:28:56;11.75;;;5.25;;
8819;SDS011;4446;50.876;4.736;2023-03-04T05:31:23;17.10;;;5.55;;
8819;SDS011;4446;50.876;4.736;2023-03-04T05:33:52;8.95;;;5.00;;
8819;SDS011;4446;50.876;4.736;2023-03-04T05:36:19;12.13;;;5.35;;
8819;SDS011;4446;50.876;4.736;2023-03-04T05:38:45;14.02;;;5.20;;
8819;SDS011;4446;50.876;4.736;2023-03-04T05:41:12;17.17;;;5.75;;
8819;SDS011;4446;50.876;4.736;2023-03-04T05:43:39;12.82;;;5.22;;
8819;SDS011;4446;50.876;4.736;2023-03-04T05:46:08;11.57;;;5.63;;
8819;SDS011;4446;50.876;4.736;2023-03-04T05:48:39;9.60;;;5.13;;
8819;SDS011;4446;50.876;4.736;2023-03-04T05:51:07;11.80;;;5.18;;
8819;SDS011;4446;50.876;4.736;2023-03-04T05:53:35;12.98;;;5.88;;
8819;SDS011;4446;50.876;4.736;2023-03-04T05:56:05;13.88;;;6.25;;
8819;SDS011;4446;50.876;4.736;2023-03-04T05:58:33;15.02;;;6.25;;
8819;SDS011;4446;50.876;4.736;2023-03-04T06:01:00;14.23;;;6.45;;
8819;SDS011;4446;50.876;4.736;2023-03-04T06:03:27;12.07;;;6.20;;
8819;SDS011;4446;50.876;4.736;2023-03-04T06:05:54;15.45;;;6.60;;
8819;SDS011;4446;50.876;4.736;2023-03-04T06:08:23;16.05;;;6.95;;
8819;SDS011;4446;50.876;4.736;2023-03-04T06:10:51;11.73;;;6.25;;
8819;SDS011;4446;50.876;4.736;2023-03-04T06:13:19;15.88;;;7.00;;
8819;SDS011;4446;50.876;4.736;2023-03-04T06:15:46;14.85;;;6.85;;
8819;SDS011;4446;50.876;4.736;2023-03-04T06:18:18;13.23;;;6.63;;
8819;SDS011;4446;50.876;4.736;2023-03-04T06:20:45;16.02;;;6.82;;
8819;SDS011;4446;50.876;4.736;2023-03-04T06:23:12;17.30;;;7.57;;
8819;SDS011;4446;50.876;4.736;2023-03-04T06:25:41;13.75;;;7.00;;
8819;SDS011;4446;50.876;4.736;2023-03-04T06:28:07;11.75;;;6.90;;
8819;SDS011;4446;50.876;4.736;2023-03-04T06:30:34;12.88;;;6.88;;
8819;SDS011;4446;50.876;4.736;2023-03-04T06:33:01;12.98;;;6.93;;
8819;SDS011;4446;50.876;4.736;2023-03-04T06:35:28;10.35;;;6.10;;
8819;SDS011;4446;50.876;4.736;2023-03-04T06:37:55;13.90;;;7.30;;
8819;SDS011;4446;50.876;4.736;2023-03-04T06:40:22;14.25;;;6.50;;
8819;SDS011;4446;50.876;4.736;2023-03-04T06:42:50;15.27;;;7.05;;
8819;SDS011;4446;50.876;4.736;2023-03-04T06:45:17;15.90;;;7.57;;
8819;SDS011;4446;50.876;4.736;2023-03-04T06:47:44;11.85;;;6.90;;
8819;SDS011;4446;50.876;4.736;2023-03-04T06:50:11;13.20;;;7.45;;
8819;SDS011;4446;50.876;4.736;2023-03-04T06:52:38;14.63;;;6.63;;
8819;SDS011;4446;50.876;4.736;2023-03-04T06:55:06;13.77;;;7.30;;
8819;SDS011;4446;50.876;4.736;2023-03-04T06:57:33;14.10;;;7.32;;
8819;SDS011;4446;50.876;4.736;2023-03-04T07:00:02;12.55;;;6.63;;
8819;SDS011;4446;50.876;4.736;2023-03-04T07:02:29;11.05;;;6.70;;
8819;SDS011;4446;50.876;4.736;2023-03-04T07:04:56;14.60;;;6.68;;
8819;SDS011;4446;50.876;4.736;2023-03-04T07:07:23;12.98;;;6.63;;
8819;SDS011;4446;50.876;4.736;2023-03-04T07:09:51;12.25;;;5.93;;
8819;SDS011;4446;50.876;4.736;2023-03-04T07:12:18;15.63;;;6.40;;
8819;SDS011;4446;50.876;4.736;2023-03-04T07:14:45;10.57;;;6.22;;
8819;SDS011;4446;50.876;4.736;2023-03-04T07:17:13;8.93;;;6.13;;
8819;SDS011;4446;50.876;4.736;2023-03-04T07:19:40;14.25;;;6.57;;
8819;SDS011;4446;50.876;4.736;2023-03-04T07:22:07;15.82;;;6.85;;
8819;SDS011;4446;50.876;4.736;2023-03-04T07:24:34;12.48;;;6.60;;
8819;SDS011;4446;50.876;4.736;2023-03-04T07:27:01;11.63;;;6.32;;
8819;SDS011;4446;50.876;4.736;2023-03-04T07:29:28;15.43;;;6.38;;
8819;SDS011;4446;50.876;4.736;2023-03-04T07:31:55;14.23;;;6.30;;
8819;SDS011;4446;50.876;4.736;2023-03-04T07:34:23;9.60;;;6.15;;
8819;SDS011;4446;50.876;4.736;2023-03-04T07:36:50;11.25;;;6.13;;
8819;SDS011;4446;50.876;4.736;2023-03-04T07:39:18;12.02;;;6.25;;
8819;SDS011;4446;50.876;4.736;2023-03-04T07:41:44;12.48;;;5.70;;
8819;SDS011;4446;50.876;4.736;2023-03-04T07:44:11;12.32;;;6.22;;
8819;SDS011;4446;50.876;4.736;2023-03-04T07:46:38;14.25;;;5.80;;
8819;SDS011;4446;50.876;4.736;2023-03-04T07:49:05;10.55;;;5.75;;
8819;SDS011;4446;50.876;4.736;2023-03-04T07:51:34;11.93;;;5.68;;
8819;SDS011;4446;50.876;4.736;2023-03-04T07:54:01;8.38;;;5.28;;
8819;SDS011;4446;50.876;4.736;2023-03-04T07:56:28;10.38;;;5.22;;
8819;SDS011;4446;50.876;4.736;2023-03-04T07:58:56;11.00;;;5.18;;
8819;SDS011;4446;50.876;4.736;2023-03-04T08:01:25;13.63;;;5.30;;
8819;SDS011;4446;50.876;4.736;2023-03-04T08:03:53;10.57;;;4.75;;
8819;SDS011;4446;50.876;4.736;2023-03-04T08:06:20;8.70;;;4.63;;
8819;SDS011;4446;50.876;4.736;2023-03-04T08:08:49;12.10;;;4.72;;
8819;SDS011;4446;50.876;4.736;2023-03-04T08:11:20;7.55;;;4.20;;
8819;SDS011;4446;50.876;4.736;2023-03-04T08:13:48;14.35;;;5.10;;
8819;SDS011;4446;50.876;4.736;2023-03-04T08:16:16;13.20;;;4.55;;
8819;SDS011;4446;50.876;4.736;2023-03-04T08:18:44;9.45;;;4.32;;
8819;SDS011;4446;50.876;4.736;2023-03-04T08:21:13;9.90;;;4.53;;
8819;SDS011;4446;50.876;4.736;2023-03-04T08:23:42;16.63;;;4.90;;
8819;SDS011;4446;50.876;4.736;2023-03-04T08:26:11;11.68;;;4.55;;
8819;SDS011;4446;50.876;4.736;2023-03-04T08:28:41;11.38;;;4.10;;
8819;SDS011;4446;50.876;4.736;2023-03-04T08:31:10;10.75;;;4.65;;
8819;SDS011;4446;50.876;4.736;2023-03-04T08:33:37;7.68;;;3.88;;
8819;SDS011;4446;50.876;4.736;2023-03-04T08:36:04;8.30;;;3.60;;
8819;SDS011;4446;50.876;4.736;2023-03-04T08:38:32;9.77;;;3.83;;
8819;SDS011;4446;50.876;4.736;2023-03-04T08:40:58;10.20;;;3.40;;
8819;SDS011;4446;50.876;4.736;2023-03-04T08:43:28;8.55;;;4.03;;
8819;SDS011;4446;50.876;4.736;2023-03-04T08:45:56;8.50;;;3.65;;
8819;SDS011;4446;50.876;4.736;2023-03-04T08:48:23;5.22;;;2.80;;
8819;SDS011;4446;50.876;4.736;2023-03-04T08:50:50;6.82;;;2.97;;
8819;SDS011;4446;50.876;4.736;2023-03-04T08:53:18;7.60;;;2.80;;
8819;SDS011;4446;50.876;4.736;2023-03-04T08:55:45;5.53;;;2.60;;
8819;SDS011;4446;50.876;4.736;2023-03-04T08:58:13;9.50;;;3.55;;
8819;SDS011;4446;50.876;4.736;2023-03-04T09:00:42;5.88;;;2.85;;
8819;SDS011;4446;50.876;4.736;2023-03-04T09:03:12;9.02;;;2.90;;
8819;SDS011;4446;50.876;4.736;2023-03-04T09:05:40;7.93;;;2.90;;
8819;SDS011;4446;50.876;4.736;2023-03-04T09:08:07;5.25;;;2.85;;
8819;SDS011;4446;50.876;4.736;2023-03-04T09:10:34;5.85;;;3.08;;
8819;SDS011;4446;50.876;4.736;2023-03-04T09:13:01;9.13;;;3.40;;
8819;SDS011;4446;50.876;4.736;2023-03-04T09:15:27;7.75;;;3.08;;
8819;SDS011;4446;50.876;4.736;2023-03-04T09:17:56;7.32;;;3.53;;
8819;SDS011;4446;50.876;4.736;2023-03-04T09:20:23;7.30;;;4.30;;
8819;SDS011;4446;50.876;4.736;2023-03-04T09:22:49;11.10;;;4.10;;
8819;SDS011;4446;50.876;4.736;2023-03-04T09:25:16;9.80;;;4.03;;
8819;SDS011;4446;50.876;4.736;2023-03-04T09:27:43;8.68;;;4.40;;
8819;SDS011;4446;50.876;4.736;2023-03-04T09:30:10;9.05;;;4.22;;
8819;SDS011;4446;50.876;4.736;2023-03-04T09:32:38;7.75;;;4.70;;
8819;SDS011;4446;50.876;4.736;2023-03-04T09:35:07;10.63;;;5.13;;
8819;SDS011;4446;50.876;4.736;2023-03-04T09:37:35;10.48;;;4.88;;
8819;SDS011;4446;50.876;4.736;2023-03-04T09:40:02;10.02;;;4.65;;
8819;SDS011;4446;50.876;4.736;2023-03-04T09:42:32;6.38;;;4.97;;
8819;SDS011;4446;50.876;4.736;2023-03-04T09:45:02;10.63;;;4.70;;
8819;SDS011;4446;50.876;4.736;2023-03-04T09:47:33;7.53;;;4.82;;
8819;SDS011;4446;50.876;4.736;2023-03-04T09:50:04;5.90;;;4.50;;
8819;SDS011;4446;50.876;4.736;2023-03-04T09:52:38;7.95;;;4.55;;
8819;SDS011;4446;50.876;4.736;2023-03-04T09:55:15;7.60;;;4.40;;
8819;SDS011;4446;50.876;4.736;2023-03-04T09:57:48;10.25;;;5.07;;
8819;SDS011;4446;50.876;4.736;2023-03-04T10:00:20;7.50;;;3.95;;
8819;SDS011;4446;50.876;4.736;2023-03-04T10:03:03;7.35;;;3.95;;
8819;SDS011;4446;50.876;4.736;2023-03-04T10:05:38;8.98;;;3.80;;
8819;SDS011;4446;50.876;4.736;2023-03-04T10:11:05;9.82;;;3.83;;
8819;SDS011;4446;50.876;4.736;2023-03-04T10:13:39;9.23;;;3.83;;
8819;SDS011;4446;50.876;4.736;2023-03-04T10:16:17;5.10;;;3.35;;
8819;SDS011;4446;50.876;4.736;2023-03-04T10:18:47;7.63;;;3.10;;
8819;SDS011;4446;50.876;4.736;2023-03-04T10:21:21;7.30;;;2.90;;
8819;SDS011;4446;50.876;4.736;2023-03-04T10:23:51;7.45;;;3.05;;
8819;SDS011;4446;50.876;4.736;2023-03-04T10:26:19;6.90;;;3.10;;
8819;SDS011;4446;50.876;4.736;2023-03-04T10:28:47;6.95;;;2.65;;
8819;SDS011;4446;50.876;4.736;2023-03-04T10:31:16;6.75;;;3.28;;
8819;SDS011;4446;50.876;4.736;2023-03-04T10:33:47;5.50;;;2.97;;
8819;SDS011;4446;50.876;4.736;2023-03-04T10:36:24;6.20;;;2.67;;
8819;SDS011;4446;50.876;4.736;2023-03-04T10:39:11;5.78;;;3.00;;
8819;SDS011;4446;50.876;4.736;2023-03-04T10:41:43;6.57;;;2.95;;
8819;SDS011;4446;50.876;4.736;2023-03-04T10:44:14;5.00;;;2.83;;
8819;SDS011;4446;50.876;4.736;2023-03-04T10:46:43;8.90;;;3.03;;
8819;SDS011;4446;50.876;4.736;2023-03-04T10:49:12;7.43;;;3.00;;
8819;SDS011;4446;50.876;4.736;2023-03-04T10:51:42;8.68;;;2.90;;
8819;SDS011;4446;50.876;4.736;2023-03-04T10:54:16;6.28;;;2.90;;
8819;SDS011;4446;50.876;4.736;2023-03-04T10:56:52;7.03;;;3.05;;
8819;SDS011;4446;50.876;4.736;2023-03-04T10:59:37;7.28;;;3.13;;
8819;SDS011;4446;50.876;4.736;2023-03-04T11:02:15;7.35;;;3.33;;
8819;SDS011;4446;50.876;4.736;2023-03-04T11:04:49;6.97;;;3.50;;
8819;SDS011;4446;50.876;4.736;2023-03-04T11:07:19;4.63;;;3.10;;
8819;SDS011;4446;50.876;4.736;2023-03-04T11:09:47;6.18;;;3.30;;
8819;SDS011;4446;50.876;4.736;2023-03-04T11:12:14;8.00;;;3.28;;
8819;SDS011;4446;50.876;4.736;2023-03-04T11:14:45;6.22;;;3.05;;
8819;SDS011;4446;50.876;4.736;2023-03-04T11:17:21;8.68;;;3.63;;
8819;SDS011;4446;50.876;4.736;2023-03-04T11:19:51;6.30;;;3.33;;
8819;SDS011;4446;50.876;4.736;2023-03-04T11:22:23;5.90;;;2.88;;
8819;SDS011;4446;50.876;4.736;2023-03-04T11:24:54;6.93;;;3.85;;
8819;SDS011;4446;50.876;4.736;2023-03-04T11:27:24;9.38;;;4.60;;
8819;SDS011;4446;50.876;4.736;2023-03-04T11:30:15;4.85;;;3.58;;
8819;SDS011;4446;50.876;4.736;2023-03-04T11:32:51;7.10;;;3.70;;
8819;SDS011;4446;50.876;4.736;2023-03-04T11:35:23;5.38;;;3.80;;
8819;SDS011;4446;50.876;4.736;2023-03-04T11:37:56;5.90;;;4.00;;
8819;SDS011;4446;50.876;4.736;2023-03-04T11:40:31;8.63;;;3.92;;
8819;SDS011;4446;50.876;4.736;2023-03-04T11:43:02;9.25;;;4.13;;
8819;SDS011;4446;50.876;4.736;2023-03-04T11:45:37;5.78;;;3.83;;
8819;SDS011;4446;50.876;4.736;2023-03-04T11:48:15;5.50;;;3.40;;
8819;SDS011;4446;50.876;4.736;2023-03-04T11:50:48;7.60;;;3.53;;
8819;SDS011;4446;50.876;4.736;2023-03-04T11:53:28;7.80;;;3.75;;
8819;SDS011;4446;50.876;4.736;2023-03-04T11:56:05;7.35;;;3.60;;
8819;SDS011;4446;50.876;4.736;2023-03-04T11:58:47;4.63;;;3.03;;
8819;SDS011;4446;50.876;4.736;2023-03-04T12:01:46;7.20;;;3.17;;
8819;SDS011;4446;50.876;4.736;2023-03-04T12:04:23;5.45;;;3.20;;
8819;SDS011;4446;50.876;4.736;2023-03-04T12:07:02;7.47;;;3.20;;
8819;SDS011;4446;50.876;4.736;2023-03-04T12:09:41;5.85;;;3.15;;
8819;SDS011;4446;50.876;4.736;2023-03-04T12:12:21;6.45;;;3.95;;
8819;SDS011;4446;50.876;4.736;2023-03-04T12:14:58;5.57;;;3.75;;
8819;SDS011;4446;50.876;4.736;2023-03-04T12:17:41;4.38;;;3.13;;
8819;SDS011;4446;50.876;4.736;2023-03-04T12:20:23;4.35;;;3.33;;
8819;SDS011;4446;50.876;4.736;2023-03-04T12:23:00;5.40;;;3.10;;
8819;SDS011;4446;50.876;4.736;2023-03-04T12:25:39;2.75;;;2.38;;
8819;SDS011;4446;50.876;4.736;2023-03-04T12:28:12;3.92;;;2.78;;
8819;SDS011;4446;50.876;4.736;2023-03-04T12:34:00;3.45;;;2.30;;
8819;SDS011;4446;50.876;4.736;2023-03-04T12:36:47;4.78;;;2.58;;
8819;SDS011;4446;50.876;4.736;2023-03-04T12:39:24;4.50;;;2.58;;
8819;SDS011;4446;50.876;4.736;2023-03-04T12:42:00;5.05;;;2.75;;
8819;SDS011;4446;50.876;4.736;2023-03-04T12:44:33;4.72;;;2.53;;
8819;SDS011;4446;50.876;4.736;2023-03-04T12:50:09;6.95;;;3.35;;
8819;SDS011;4446;50.876;4.736;2023-03-04T12:52:52;7.60;;;3.00;;
8819;SDS011;4446;50.876;4.736;2023-03-04T12:55:25;5.63;;;3.30;;
8819;SDS011;4446;50.876;4.736;2023-03-04T12:58:02;6.22;;;2.78;;
8819;SDS011;4446;50.876;4.736;2023-03-04T13:00:33;3.95;;;2.75;;
8819;SDS011;4446;50.876;4.736;2023-03-04T13:03:10;6.80;;;2.20;;
8819;SDS011;4446;50.876;4.736;2023-03-04T13:05:49;4.78;;;2.58;;
8819;SDS011;4446;50.876;4.736;2023-03-04T13:08:40;5.18;;;2.50;;
8819;SDS011;4446;50.876;4.736;2023-03-04T13:14:25;4.90;;;3.80;;
8819;SDS011;4446;50.876;4.736;2023-03-04T13:16:57;10.13;;;4.47;;
8819;SDS011;4446;50.876;4.736;2023-03-04T13:22:29;8.75;;;4.85;;
8819;SDS011;4446;50.876;4.736;2023-03-04T13:25:13;10.40;;;4.90;;
8819;SDS011;4446;50.876;4.736;2023-03-04T13:28:19;7.45;;;4.30;;
8819;SDS011;4446;50.876;4.736;2023-03-04T13:34:00;9.40;;;4.70;;
8819;SDS011;4446;50.876;4.736;2023-03-04T13:39:23;6.90;;;5.45;;
8819;SDS011;4446;50.876;4.736;2023-03-04T13:41:56;8.32;;;5.00;;
8819;SDS011;4446;50.876;4.736;2023-03-04T13:44:30;8.60;;;5.18;;
8819;SDS011;4446;50.876;4.736;2023-03-04T13:47:16;9.73;;;5.43;;
8819;SDS011;4446;50.876;4.736;2023-03-04T13:49:45;10.60;;;5.45;;
8819;SDS011;4446;50.876;4.736;2023-03-04T13:52:33;10.95;;;5.38;;
8819;SDS011;4446;50.876;4.736;2023-03-04T13:58:16;11.15;;;5.88;;
8819;SDS011;4446;50.876;4.736;2023-03-04T14:00:47;8.02;;;5.38;;
8819;SDS011;4446;50.876;4.736;2023-03-04T14:03:20;10.23;;;5.93;;
8819;SDS011;4446;50.876;4.736;2023-03-04T14:08:37;7.05;;;5.35;;
8819;SDS011;4446;50.876;4.736;2023-03-04T14:11:04;11.85;;;5.80;;
8819;SDS011;4446;50.876;4.736;2023-03-04T14:13:37;6.88;;;5.18;;
8819;SDS011;4446;50.876;4.736;2023-03-04T14:16:05;8.68;;;5.85;;
8819;SDS011;4446;50.876;4.736;2023-03-04T14:18:32;7.15;;;5.63;;
8819;SDS011;4446;50.876;4.736;2023-03-04T14:20:59;5.63;;;5.00;;
8819;SDS011;4446;50.876;4.736;2023-03-04T14:23:27;10.25;;;6.50;;
8819;SDS011;4446;50.876;4.736;2023-03-04T14:26:06;7.88;;;5.55;;
8819;SDS011;4446;50.876;4.736;2023-03-04T14:28:42;7.32;;;6.00;;
8819;SDS011;4446;50.876;4.736;2023-03-04T14:31:14;6.80;;;5.38;;
8819;SDS011;4446;50.876;4.736;2023-03-04T14:33:44;8.32;;;5.43;;
8819;SDS011;4446;50.876;4.736;2023-03-04T14:36:17;5.85;;;5.05;;
8819;SDS011;4446;50.876;4.736;2023-03-04T14:38:48;9.27;;;5.15;;
8819;SDS011;4446;50.876;4.736;2023-03-04T14:41:20;7.85;;;5.15;;
8819;SDS011;4446;50.876;4.736;2023-03-04T14:43:54;7.00;;;5.15;;
8819;SDS011;4446;50.876;4.736;2023-03-04T14:46:27;7.95;;;5.43;;
8819;SDS011;4446;50.876;4.736;2023-03-04T14:48:58;6.28;;;5.55;;
8819;SDS011;4446;50.876;4.736;2023-03-04T14:51:30;8.10;;;5.60;;
8819;SDS011;4446;50.876;4.736;2023-03-04T14:54:21;6.90;;;5.53;;
8819;SDS011;4446;50.876;4.736;2023-03-04T14:56:54;7.85;;;5.57;;
8819;SDS011;4446;50.876;4.736;2023-03-04T14:59:32;8.18;;;6.00;;
8819;SDS011;4446;50.876;4.736;2023-03-04T15:04:49;7.22;;;5.93;;
8819;SDS011;4446;50.876;4.736;2023-03-04T15:07:17;8.90;;;5.95;;
8819;SDS011;4446;50.876;4.736;2023-03-04T15:09:52;6.43;;;5.43;;
8819;SDS011;4446;50.876;4.736;2023-03-04T15:12:21;8.88;;;6.57;;
8819;SDS011;4446;50.876;4.736;2023-03-04T15:14:52;8.07;;;6.22;;
8819;SDS011;4446;50.876;4.736;2023-03-04T15:17:22;7.72;;;6.55;;
8819;SDS011;4446;50.876;4.736;2023-03-04T15:19:58;9.45;;;7.93;;
8819;SDS011;4446;50.876;4.736;2023-03-04T15:22:26;8.35;;;6.82;;
8819;SDS011;4446;50.876;4.736;2023-03-04T15:24:53;8.88;;;7.03;;
8819;SDS011;4446;50.876;4.736;2023-03-04T15:27:20;8.10;;;6.45;;
8819;SDS011;4446;50.876;4.736;2023-03-04T15:29:49;8.85;;;6.05;;
8819;SDS011;4446;50.876;4.736;2023-03-04T15:32:21;7.00;;;6.10;;
8819;SDS011;4446;50.876;4.736;2023-03-04T15:34:48;7.07;;;5.88;;
8819;SDS011;4446;50.876;4.736;2023-03-04T15:37:17;8.85;;;5.50;;
8819;SDS011;4446;50.876;4.736;2023-03-04T15:39:46;7.03;;;5.93;;
8819;SDS011;4446;50.876;4.736;2023-03-04T15:42:13;6.35;;;5.60;;
8819;SDS011;4446;50.876;4.736;2023-03-04T15:44:40;6.25;;;5.18;;
8819;SDS011;4446;50.876;4.736;2023-03-04T15:47:08;6.70;;;5.07;;
8819;SDS011;4446;50.876;4.736;2023-03-04T15:49:38;6.32;;;5.60;;
8819;SDS011;4446;50.876;4.736;2023-03-04T15:52:09;7.15;;;5.70;;
8819;SDS011;4446;50.876;4.736;2023-03-04T15:54:40;6.88;;;5.65;;